createdAt,value
2023-01-13T00:01:56.666Z,99729.97
2023-01-13T00:04:29.459Z,99740.34
2023-01-13T00:07:08.749Z,99741.19
2023-01-13T00:09:38.328Z,99741.28
2023-01-13T00:12:13.534Z,99738.78
2023-01-13T00:14:48.984Z,99748.34
2023-01-13T00:17:23.394Z,99732.81
2023-01-13T00:20:01.453Z,99737.13
2023-01-13T00:22:30.895Z,99734.66
2023-01-13T00:25:06.181Z,99736.56
2023-01-13T00:27:42.976Z,99736.66
2023-01-13T00:30:13.136Z,99743.56
2023-01-13T00:32:44.873Z,99744.38
2023-01-13T00:35:16.903Z,99745.16
2023-01-13T00:37:51.089Z,99737.31
2023-01-13T00:40:21.670Z,99745.09
2023-01-13T00:43:11.289Z,99740.78
2023-01-13T00:45:53.013Z,99742.59
2023-01-13T00:48:24.511Z,99735.75
2023-01-13T00:51:01.368Z,99742.78
2023-01-13T00:53:33.349Z,99735.03
2023-01-13T00:56:10.134Z,99732.56
2023-01-13T00:58:44.671Z,99731.72
2023-01-13T01:01:17.876Z,99724.84
2023-01-13T01:03:50.155Z,99718.00
2023-01-13T01:06:32.849Z,99715.44
2023-01-13T01:09:07.610Z,99717.91
2023-01-13T01:11:38.312Z,99715.25
2023-01-13T01:14:16.892Z,99716.19
2023-01-13T01:16:53.034Z,99722.25
2023-01-13T01:19:24.167Z,99719.63
2023-01-13T01:21:53.367Z,99709.28
2023-01-13T01:24:27.268Z,99704.16
2023-01-13T01:26:59.939Z,99705.97
2023-01-13T01:29:35.305Z,99701.56
2023-01-13T01:32:05.202Z,99697.19
2023-01-13T01:34:34.572Z,99696.19
2023-01-13T01:37:03.840Z,99695.25
2023-01-13T01:39:39.170Z,99687.44
2023-01-13T01:42:25.724Z,99684.72
2023-01-13T01:45:03.896Z,99684.47
2023-01-13T01:47:34.959Z,99685.16
2023-01-13T01:50:11.817Z,99678.16
2023-01-13T01:52:50.546Z,99676.28
2023-01-13T01:55:33.695Z,99671.88
2023-01-13T01:58:12.783Z,99666.56
2023-01-13T02:00:49.658Z,99656.97
2023-01-13T02:03:21.799Z,99653.28
2023-01-13T02:05:56.723Z,99655.63
2023-01-13T02:08:44.347Z,99648.66
2023-01-13T02:11:50.689Z,99650.34
2023-01-13T02:14:21.272Z,99648.53
2023-01-13T02:17:04.466Z,99641.66
2023-01-13T02:20:06.607Z,99633.88
2023-01-13T02:22:52.213Z,99638.19
2023-01-13T02:25:49.060Z,99632.06
2023-01-13T02:28:51.337Z,99619.94
2023-01-13T02:31:44.631Z,99627.66
2023-01-13T02:34:18.467Z,99620.81
2023-01-13T02:37:01.822Z,99626.00
2023-01-13T02:39:39.021Z,99619.22
2023-01-13T02:42:38.456Z,99619.28
2023-01-13T02:45:17.588Z,99620.19
2023-01-13T02:48:02.424Z,99612.41
2023-01-13T02:50:39.225Z,99620.09
2023-01-13T02:53:12.213Z,99623.63
2023-01-13T02:55:46.690Z,99621.00
2023-01-13T02:58:19.076Z,99617.56
2023-01-13T03:00:52.509Z,99619.28
2023-01-13T03:03:24.047Z,99611.56
2023-01-13T03:05:55.906Z,99615.97
2023-01-13T03:08:43.061Z,99610.00
2023-01-13T03:11:20.669Z,99613.47
2023-01-13T03:14:19.726Z,99612.63
2023-01-13T03:17:26.973Z,99612.59
2023-01-13T03:20:04.066Z,99610.75
2023-01-13T03:22:39.258Z,99610.75
2023-01-13T03:25:13.562Z,99601.09
2023-01-13T03:27:49.405Z,99607.00
2023-01-13T03:30:23.649Z,99605.19
2023-01-13T03:33:04.399Z,99603.31
2023-01-13T03:35:41.297Z,99604.97
2023-01-13T03:38:16.261Z,99606.63
2023-01-13T03:40:56.427Z,99600.44
2023-01-13T03:43:49.601Z,99597.69
2023-01-13T03:46:26.173Z,99601.91
2023-01-13T03:49:01.589Z,99602.72
2023-01-13T03:51:40.752Z,99594.88
2023-01-13T03:54:14.388Z,99588.75
2023-01-13T03:56:47.437Z,99588.75
2023-01-13T03:59:27.878Z,99592.09
2023-01-13T04:02:08.544Z,99591.28
2023-01-13T04:04:42.457Z,99590.38
2023-01-13T04:07:21.827Z,99592.03
2023-01-13T04:10:03.072Z,99590.28
2023-01-13T04:12:55.366Z,99584.91
2023-01-13T04:15:30.839Z,99580.41
2023-01-13T04:18:17.262Z,99576.78
2023-01-13T04:20:48.687Z,99581.00
2023-01-13T04:23:30.806Z,99572.22
2023-01-13T04:25:59.877Z,99574.72
2023-01-13T04:28:29.172Z,99572.91
2023-01-13T04:30:58.114Z,99568.59
2023-01-13T04:33:27.686Z,99567.66
2023-01-13T04:35:57.440Z,99565.00
2023-01-13T04:38:28.085Z,99557.91
2023-01-13T04:41:05.396Z,99554.38
2023-01-13T04:43:34.561Z,99557.69
2023-01-13T04:46:07.027Z,99561.97
2023-01-13T04:48:39.917Z,99555.84
2023-01-13T04:51:10.462Z,99564.34
2023-01-13T04:53:51.626Z,99560.00
2023-01-13T04:56:20.846Z,99564.28
2023-01-13T04:58:49.614Z,99552.09
2023-01-13T05:01:23.785Z,99568.47
2023-01-13T05:03:53.171Z,99554.53
2023-01-13T05:06:22.336Z,99560.44
2023-01-13T05:08:52.635Z,99564.66
2023-01-13T05:11:38.914Z,99564.59
2023-01-13T05:14:28.125Z,99574.03
2023-01-13T05:17:07.722Z,99567.06
2023-01-13T05:19:40.855Z,99568.66
2023-01-13T05:22:33.054Z,99562.53
2023-01-13T05:25:20.838Z,99563.31
2023-01-13T05:27:51.795Z,99566.78
2023-01-13T05:30:26.699Z,99575.38
2023-01-13T05:32:58.484Z,99572.72
2023-01-13T05:35:29.368Z,99573.47
2023-01-13T05:38:00.849Z,99572.50
2023-01-13T05:40:49.159Z,99574.13
2023-01-13T05:43:23.076Z,99574.00
2023-01-13T05:46:01.795Z,99562.78
2023-01-13T05:48:33.588Z,99567.13
2023-01-13T05:51:04.032Z,99567.13
2023-01-13T05:53:35.475Z,99568.00
2023-01-13T05:56:10.103Z,99571.41
2023-01-13T05:58:39.537Z,99566.22
2023-01-13T06:01:10.320Z,99570.47
2023-01-13T06:03:42.713Z,99574.72
2023-01-13T06:06:15.126Z,99575.59
2023-01-13T06:08:47.134Z,99580.78
2023-01-13T06:11:17.943Z,99578.19
2023-01-13T06:13:49.257Z,99577.06
2023-01-13T06:16:21.437Z,99580.41
2023-01-13T06:18:53.953Z,99579.41
2023-01-13T06:21:28.608Z,99587.84
2023-01-13T06:24:01.222Z,99585.94
2023-01-13T06:26:40.289Z,99583.13
2023-01-13T06:29:18.133Z,99586.56
2023-01-13T06:31:49.034Z,99587.34
2023-01-13T06:34:24.789Z,99588.06
2023-01-13T06:36:56.578Z,99582.84
2023-01-13T06:39:32.217Z,99584.56
2023-01-13T06:42:22.275Z,99568.94
2023-01-13T06:44:55.359Z,99577.28
2023-01-13T06:47:37.195Z,99571.84
2023-01-13T06:50:06.945Z,99583.91
2023-01-13T06:52:43.647Z,99580.25
2023-01-13T06:55:13.170Z,99575.91
2023-01-13T06:57:58.491Z,99584.44
2023-01-13T07:00:32.640Z,99582.53
2023-01-13T07:03:17.552Z,99591.13
2023-01-13T07:05:56.965Z,99589.13
2023-01-13T07:08:26.748Z,99590.69
2023-01-13T07:11:03.791Z,99584.34
2023-01-13T07:13:54.144Z,99586.78
2023-01-13T07:16:25.160Z,99579.81
2023-01-13T07:18:59.900Z,99583.91
2023-01-13T07:21:29.384Z,99581.13
2023-01-13T07:24:00.960Z,99577.41
2023-01-13T07:26:38.523Z,99580.88
2023-01-13T07:29:15.507Z,99590.09
2023-01-13T07:31:50.485Z,99575.47
2023-01-13T07:34:20.429Z,99589.03
2023-01-13T07:36:51.993Z,99592.31
2023-01-13T07:39:21.666Z,99590.44
2023-01-13T07:42:08.490Z,99578.34
2023-01-13T07:44:42.068Z,99592.81
2023-01-13T07:47:13.955Z,99591.94
2023-01-13T07:49:49.982Z,99596.09
2023-01-13T07:52:26.973Z,99596.81
2023-01-13T07:54:59.297Z,99589.72
2023-01-13T07:57:33.458Z,99595.66
2023-01-13T08:00:12.858Z,99593.84
2023-01-13T08:02:47.087Z,99589.31
2023-01-13T08:05:21.167Z,99598.78
2023-01-13T08:07:53.290Z,99596.06
2023-01-13T08:10:22.552Z,99590.09
2023-01-13T08:13:12.164Z,99591.00
2023-01-13T08:15:45.973Z,99586.63
2023-01-13T08:18:15.799Z,99586.69
2023-01-13T08:20:50.128Z,99589.06
2023-01-13T08:23:20.236Z,99586.41
2023-01-13T08:25:57.062Z,99591.47
2023-01-13T08:28:29.816Z,99588.81
2023-01-13T08:31:03.018Z,99589.63
2023-01-13T08:33:36.768Z,99594.84
2023-01-13T08:36:19.624Z,99595.69
2023-01-13T08:38:52.503Z,99592.22
2023-01-13T08:41:43.808Z,99591.44
2023-01-13T08:44:25.443Z,99593.94
2023-01-13T08:47:03.704Z,99597.41
2023-01-13T08:49:38.331Z,99600.00
2023-01-13T08:52:09.570Z,99605.13
2023-01-13T08:54:45.005Z,99603.38
2023-01-13T08:57:20.218Z,99599.09
2023-01-13T08:59:51.570Z,99605.94
2023-01-13T09:02:26.460Z,99605.94
2023-01-13T09:04:56.238Z,99597.50
2023-01-13T09:07:28.510Z,99606.72
2023-01-13T09:10:07.599Z,99609.22
2023-01-13T09:12:57.663Z,99607.38
2023-01-13T09:15:27.383Z,99600.19
2023-01-13T09:18:01.205Z,99600.91
2023-01-13T09:20:30.303Z,99604.31
2023-01-13T09:22:59.403Z,99593.88
2023-01-13T09:25:28.957Z,99595.56
2023-01-13T09:27:58.871Z,99591.16
2023-01-13T09:30:29.701Z,99593.69
2023-01-13T09:33:15.126Z,99588.41
2023-01-13T09:35:45.703Z,99593.56
2023-01-13T09:38:18.277Z,99590.91
2023-01-13T09:40:50.592Z,99590.91
2023-01-13T09:43:40.537Z,99590.66
2023-01-13T09:46:33.723Z,99585.31
2023-01-13T09:49:08.417Z,99574.94
2023-01-13T09:51:46.104Z,99581.41
2023-01-13T09:54:22.903Z,99583.91
2023-01-13T09:56:58.652Z,99585.72
2023-01-13T09:59:38.791Z,99579.59
2023-01-13T10:02:33.679Z,99579.59
2023-01-13T10:05:17.040Z,99572.94
2023-01-13T10:07:55.614Z,99573.47
2023-01-13T10:10:39.437Z,99571.69
2023-01-13T10:13:20.494Z,99563.16
2023-01-13T10:15:57.877Z,99569.22
2023-01-13T10:18:37.470Z,99564.91
2023-01-13T10:21:47.145Z,99560.41
2023-01-13T10:24:23.165Z,99562.97
2023-01-13T10:27:13.583Z,99554.41
2023-01-13T10:29:42.767Z,99552.81
2023-01-13T10:32:12.425Z,99560.53
2023-01-13T10:34:51.378Z,99554.56
2023-01-13T10:37:27.674Z,99557.94
2023-01-13T10:40:02.067Z,99551.94
2023-01-13T10:42:33.925Z,99558.91
2023-01-13T10:45:07.336Z,99552.16
2023-01-13T10:47:38.452Z,99545.53
2023-01-13T10:50:28.577Z,99557.59
2023-01-13T10:53:01.762Z,99546.50
2023-01-13T10:55:33.546Z,99537.16
2023-01-13T10:58:16.065Z,99544.81
2023-01-13T11:00:45.656Z,99538.72
2023-01-13T11:03:25.608Z,99537.81
2023-01-13T11:05:56.895Z,99533.44
2023-01-13T11:08:30.454Z,99541.34
2023-01-13T11:11:02.205Z,99533.50
2023-01-13T11:13:37.310Z,99530.84
2023-01-13T11:16:14.637Z,99529.97
2023-01-13T11:19:02.818Z,99537.63
2023-01-13T11:21:36.576Z,99535.75
2023-01-13T11:24:16.660Z,99526.28
2023-01-13T11:26:50.459Z,99522.75
2023-01-13T11:29:26.809Z,99503.81
2023-01-13T11:32:02.341Z,99502.75
2023-01-13T11:34:37.533Z,99514.44
2023-01-13T11:37:21.386Z,99520.09
2023-01-13T11:39:58.411Z,99515.34
2023-01-13T11:42:32.265Z,99503.78
2023-01-13T11:45:17.310Z,99506.06
2023-01-13T11:47:52.567Z,99498.06
2023-01-13T11:50:34.314Z,99492.72
2023-01-13T11:53:22.145Z,99498.53
2023-01-13T11:56:08.956Z,99498.31
2023-01-13T11:59:00.361Z,99494.81
2023-01-13T12:01:40.650Z,99500.47
2023-01-13T12:04:33.074Z,99502.03
2023-01-13T12:07:15.689Z,99493.16
2023-01-13T12:10:03.954Z,99494.72
2023-01-13T12:12:51.503Z,99495.50
2023-01-13T12:16:13.853Z,99495.66
2023-01-13T12:19:26.627Z,99495.72
2023-01-13T12:22:14.105Z,99481.13
2023-01-13T12:24:54.450Z,99495.56
2023-01-13T12:27:31.370Z,99493.63
2023-01-13T12:30:06.055Z,99490.78
2023-01-13T12:32:42.430Z,99490.66
2023-01-13T12:35:38.181Z,99481.75
2023-01-13T12:38:17.638Z,99472.19
2023-01-13T12:40:58.032Z,99483.38
2023-01-13T12:43:48.778Z,99473.91
2023-01-13T12:46:57.989Z,99478.06
2023-01-13T12:49:32.435Z,99488.38
2023-01-13T12:52:20.199Z,99484.00
2023-01-13T12:55:24.862Z,99475.53
2023-01-13T12:58:04.386Z,99484.13
2023-01-13T13:00:43.654Z,99485.56
2023-01-13T13:03:40.191Z,99479.59
2023-01-13T13:06:27.678Z,99486.69
2023-01-13T13:09:04.482Z,99477.22
2023-01-13T13:12:03.308Z,99481.59
2023-01-13T13:15:20.940Z,99482.53
2023-01-13T13:18:32.600Z,99479.03
2023-01-13T13:21:13.585Z,99476.72
2023-01-13T13:24:12.072Z,99484.19
2023-01-13T13:26:47.047Z,99486.88
2023-01-13T13:29:48.814Z,99484.38
2023-01-13T13:32:59.680Z,99478.75
2023-01-13T13:35:54.261Z,99478.91
2023-01-13T13:38:50.535Z,99488.72
2023-01-13T13:41:44.746Z,99479.31
2023-01-13T13:44:35.683Z,99477.59
2023-01-13T13:47:11.555Z,99481.13
2023-01-13T13:49:51.958Z,99482.97
2023-01-13T13:52:26.563Z,99470.09
2023-01-13T13:55:08.791Z,99484.03
2023-01-13T13:57:50.695Z,99480.84
2023-01-13T14:00:27.276Z,99485.19
2023-01-13T14:03:02.600Z,99483.78
2023-01-13T14:05:41.622Z,99486.34
2023-01-13T14:08:19.270Z,99478.69
2023-01-13T14:10:56.357Z,99487.28
2023-01-13T14:13:31.291Z,99483.22
2023-01-13T14:16:06.978Z,99480.94
2023-01-13T14:18:47.122Z,99493.00
2023-01-13T14:21:28.671Z,99490.66
2023-01-13T14:24:00.793Z,99492.59
2023-01-13T14:26:33.194Z,99494.44
2023-01-13T14:29:10.372Z,99502.34
2023-01-13T14:31:41.273Z,99506.69
2023-01-13T14:34:32.136Z,99504.19
2023-01-13T14:37:10.740Z,99500.91
2023-01-13T14:39:42.738Z,99492.03
2023-01-13T14:42:18.806Z,99495.56
2023-01-13T14:44:56.452Z,99499.22
2023-01-13T14:47:32.936Z,99499.09
2023-01-13T14:50:06.143Z,99498.09
2023-01-13T14:52:37.675Z,99499.03
2023-01-13T14:55:26.899Z,99501.69
2023-01-13T14:58:31.266Z,99495.56
2023-01-13T15:01:32.900Z,99504.19
2023-01-13T15:04:27.866Z,99506.84
2023-01-13T15:06:59.038Z,99507.84
2023-01-13T15:09:35.675Z,99506.25
2023-01-13T15:12:21.817Z,99510.78
2023-01-13T15:14:57.307Z,99503.78
2023-01-13T15:17:32.352Z,99509.84
2023-01-13T15:20:02.813Z,99510.03
2023-01-13T15:22:43.463Z,99506.72
2023-01-13T15:25:14.176Z,99507.41
2023-01-13T15:27:48.364Z,99500.56
2023-01-13T15:30:24.014Z,99497.03
2023-01-13T15:32:59.758Z,99496.34
2023-01-13T15:35:30.652Z,99490.34
2023-01-13T15:38:04.314Z,99498.88
2023-01-13T15:40:37.772Z,99497.13
2023-01-13T15:43:24.132Z,99508.41
2023-01-13T15:46:20.499Z,99497.03
2023-01-13T15:48:53.131Z,99504.97
2023-01-13T15:51:27.017Z,99496.22
2023-01-13T15:54:16.863Z,99505.84
2023-01-13T15:56:48.684Z,99500.78
2023-01-13T15:59:21.091Z,99500.03
2023-01-13T16:01:51.803Z,99503.50
2023-01-13T16:04:24.097Z,99507.03
2023-01-13T16:06:56.242Z,99503.63
2023-01-13T16:09:26.733Z,99499.25
2023-01-13T16:11:55.880Z,99508.59
2023-01-13T16:14:25.163Z,99506.00
2023-01-13T16:17:00.379Z,99508.59
2023-01-13T16:19:39.557Z,99500.72
2023-01-13T16:22:14.447Z,99506.78
2023-01-13T16:24:52.702Z,99513.63
2023-01-13T16:27:27.633Z,99505.84
2023-01-13T16:30:00.433Z,99511.88
2023-01-13T16:32:33.812Z,99510.03
2023-01-13T16:35:06.980Z,99509.09
2023-01-13T16:37:42.213Z,99517.81
2023-01-13T16:40:24.628Z,99520.47
2023-01-13T16:42:57.364Z,99528.25
2023-01-13T16:45:36.172Z,99535.22
2023-01-13T16:48:22.753Z,99537.81
2023-01-13T16:50:52.056Z,99539.53
2023-01-13T16:53:23.504Z,99539.47
2023-01-13T16:56:05.273Z,99538.69
2023-01-13T16:58:37.324Z,99537.81
2023-01-13T17:01:12.664Z,99541.34
2023-01-13T17:03:49.896Z,99534.44
2023-01-13T17:06:25.743Z,99531.94
2023-01-13T17:09:05.764Z,99533.66
2023-01-13T17:11:35.798Z,99528.56
2023-01-13T17:14:20.969Z,99537.06
2023-01-13T17:16:54.687Z,99532.81
2023-01-13T17:19:29.128Z,99534.50
2023-01-13T17:21:59.648Z,99533.56
2023-01-13T17:24:33.948Z,99545.66
2023-01-13T17:27:07.054Z,99538.63
2023-01-13T17:29:36.643Z,99545.47
2023-01-13T17:32:13.352Z,99535.03
2023-01-13T17:34:53.151Z,99546.34
2023-01-13T17:37:35.574Z,99548.94
2023-01-13T17:40:12.940Z,99539.28
2023-01-13T17:42:42.976Z,99540.00
2023-01-13T17:45:17.700Z,99537.38
2023-01-13T17:47:51.062Z,99545.16
2023-01-13T17:50:24.896Z,99545.16
2023-01-13T17:52:55.992Z,99542.66
2023-01-13T17:55:25.592Z,99541.84
2023-01-13T17:57:55.022Z,99546.19
2023-01-13T18:00:30.222Z,99542.75
2023-01-13T18:03:05.078Z,99542.00
2023-01-13T18:05:52.132Z,99540.97
2023-01-13T18:08:27.801Z,99547.81
2023-01-13T18:11:00.540Z,99552.16
2023-01-13T18:13:30.002Z,99563.31
2023-01-13T18:16:04.665Z,99562.38
2023-01-13T18:18:35.721Z,99558.78
2023-01-13T18:21:34.800Z,99554.44
2023-01-13T18:24:21.164Z,99550.97
2023-01-13T18:27:08.019Z,99559.66
2023-01-13T18:29:38.979Z,99557.81
2023-01-13T18:32:12.286Z,99556.06
2023-01-13T18:34:44.383Z,99557.09
2023-01-13T18:37:16.604Z,99560.53
2023-01-13T18:39:45.946Z,99565.84
2023-01-13T18:42:32.750Z,99563.31
2023-01-13T18:45:02.302Z,99569.31
2023-01-13T18:47:35.657Z,99552.72
2023-01-13T18:50:05.191Z,99568.19
2023-01-13T18:52:40.770Z,99572.44
2023-01-13T18:55:13.569Z,99571.59
2023-01-13T18:57:43.066Z,99569.84
2023-01-13T19:00:17.017Z,99573.09
2023-01-13T19:02:47.352Z,99571.41
2023-01-13T19:05:16.552Z,99571.41
2023-01-13T19:07:52.552Z,99574.78
2023-01-13T19:10:28.001Z,99573.97
2023-01-13T19:13:00.259Z,99577.56
2023-01-13T19:15:32.049Z,99590.59
2023-01-13T19:18:03.836Z,99591.50
2023-01-13T19:20:35.688Z,99587.25
2023-01-13T19:23:06.605Z,99592.47
2023-01-13T19:25:36.464Z,99592.63
2023-01-13T19:28:05.829Z,99588.38
2023-01-13T19:30:37.542Z,99597.91
2023-01-13T19:33:10.710Z,99599.59
2023-01-13T19:35:39.723Z,99603.94
2023-01-13T19:38:16.589Z,99604.16
2023-01-13T19:40:55.932Z,99609.31
2023-01-13T19:43:45.266Z,99614.53
2023-01-13T19:46:18.165Z,99625.59
2023-01-13T19:48:50.381Z,99619.56
2023-01-13T19:51:21.725Z,99630.88
2023-01-13T19:53:56.250Z,99616.22
2023-01-13T19:56:29.935Z,99624.28
2023-01-13T19:59:05.173Z,99613.22
2023-01-13T20:01:37.866Z,99623.66
2023-01-13T20:04:14.169Z,99622.91
2023-01-13T20:06:48.321Z,99629.13
2023-01-13T20:09:19.391Z,99622.25
2023-01-13T20:12:15.352Z,99636.22
2023-01-13T20:14:45.382Z,99637.00
2023-01-13T20:17:23.765Z,99626.56
2023-01-13T20:19:55.701Z,99644.59
2023-01-13T20:22:30.447Z,99646.13
2023-01-13T20:25:02.514Z,99638.09
2023-01-13T20:27:34.090Z,99643.06
2023-01-13T20:30:05.890Z,99646.47
2023-01-13T20:32:37.209Z,99645.28
2023-01-13T20:35:08.403Z,99645.84
2023-01-13T20:37:44.105Z,99650.03
2023-01-13T20:40:21.869Z,99645.06
2023-01-13T20:42:55.318Z,99649.31
2023-01-13T20:45:29.722Z,99641.59
2023-01-13T20:48:01.263Z,99640.81
2023-01-13T20:50:32.994Z,99643.53
2023-01-13T20:53:04.733Z,99647.19
2023-01-13T20:55:39.125Z,99653.44
2023-01-13T20:58:11.027Z,99650.13
2023-01-13T21:00:52.392Z,99651.91
2023-01-13T21:03:23.505Z,99652.84
2023-01-13T21:05:56.574Z,99653.03
2023-01-13T21:08:32.846Z,99660.88
2023-01-13T21:11:10.802Z,99667.91
2023-01-13T21:13:59.043Z,99675.78
2023-01-13T21:16:30.597Z,99679.31
2023-01-13T21:19:07.655Z,99668.09
2023-01-13T21:21:37.999Z,99675.13
2023-01-13T21:24:08.180Z,99690.78
2023-01-13T21:26:43.584Z,99685.72
2023-01-13T21:29:14.556Z,99694.50
2023-01-13T21:31:49.055Z,99705.78
2023-01-13T21:34:23.892Z,99702.34
2023-01-13T21:36:53.184Z,99706.44
2023-01-13T21:39:28.794Z,99703.06
2023-01-13T21:42:20.836Z,99712.53
2023-01-13T21:45:09.748Z,99708.94
2023-01-13T21:47:57.549Z,99711.56
2023-01-13T21:50:30.805Z,99711.41
2023-01-13T21:53:00.821Z,99713.13
2023-01-13T21:55:30.231Z,99709.50
2023-01-13T21:58:02.538Z,99706.09
2023-01-13T22:00:33.320Z,99706.75
2023-01-13T22:03:04.614Z,99716.31
2023-01-13T22:05:33.235Z,99718.91
2023-01-13T22:08:01.911Z,99724.06
2023-01-13T22:10:34.200Z,99715.44
2023-01-13T22:13:20.157Z,99713.56
2023-01-13T22:15:50.136Z,99720.41
2023-01-13T22:18:19.735Z,99719.59
2023-01-13T22:20:50.069Z,99717.88
2023-01-13T22:23:21.542Z,99712.66
2023-01-13T22:25:51.460Z,99718.72
2023-01-13T22:28:25.464Z,99716.97
2023-01-13T22:30:54.715Z,99716.16
2023-01-13T22:33:29.033Z,99724.00
2023-01-13T22:35:58.258Z,99730.13
2023-01-13T22:38:27.440Z,99729.28
2023-01-13T22:41:03.214Z,99728.59
2023-01-13T22:43:36.855Z,99732.06
2023-01-13T22:46:08.223Z,99736.59
2023-01-13T22:48:43.535Z,99737.41
2023-01-13T22:51:18.911Z,99738.31
2023-01-13T22:53:49.221Z,99741.84
2023-01-13T22:56:27.926Z,99735.81
2023-01-13T22:59:00.560Z,99737.66
2023-01-13T23:01:34.371Z,99732.69
2023-01-13T23:04:07.822Z,99743.00
2023-01-13T23:06:37.244Z,99744.72
2023-01-13T23:09:12.510Z,99748.22
2023-01-13T23:11:47.931Z,99761.41
2023-01-13T23:14:20.779Z,99760.72
2023-01-13T23:16:50.253Z,99762.56
2023-01-13T23:19:27.374Z,99762.56
2023-01-13T23:21:59.216Z,99760.06
2023-01-13T23:28:23.908Z,99768.81
2023-01-13T23:30:55.024Z,99775.00
2023-01-13T23:33:27.288Z,99766.28
2023-01-13T23:36:00.724Z,99767.31
2023-01-13T23:42:11.990Z,99778.66
2023-01-13T23:44:41.013Z,99782.28
2023-01-13T23:47:22.093Z,99769.34
2023-01-13T23:50:02.263Z,99777.13
2023-01-13T23:52:31.395Z,99774.56
2023-01-13T23:55:07.766Z,99780.78
2023-01-13T23:57:36.955Z,99770.47
